RJAN(METAR)
05/30 16:00
RJAN 300700Z 12009KT 9999 FEW030 SCTXXX 24/17 Q1020 RMK A3013=
戻る
トップページへ戻る
IMOC Co,.Ltd.